createdAt,value
2017-11-30T00:02:11.597Z,3.60
2017-11-30T00:04:40.938Z,3.60
2017-11-30T00:07:09.912Z,3.60
2017-11-30T00:09:39.314Z,4.80
2017-11-30T00:12:08.293Z,3.80
2017-11-30T00:14:37.340Z,3.90
2017-11-30T00:17:06.420Z,3.80
2017-11-30T00:19:36.182Z,3.70
2017-11-30T00:22:05.526Z,3.60
2017-11-30T00:24:35.007Z,3.70
2017-11-30T00:27:04.054Z,3.60
2017-11-30T00:29:33.491Z,3.60
2017-11-30T00:32:02.577Z,3.50
2017-11-30T00:34:32.356Z,3.70
2017-11-30T00:37:01.337Z,3.60
2017-11-30T00:39:30.802Z,3.50
2017-11-30T00:42:00.714Z,3.60
2017-11-30T00:44:33.222Z,3.60
2017-11-30T00:47:02.968Z,3.70
2017-11-30T00:49:32.732Z,2.20
2017-11-30T00:52:02.484Z,3.70
2017-11-30T00:54:32.233Z,3.70
2017-11-30T00:57:01.217Z,3.70
2017-11-30T00:59:30.656Z,3.70
2017-11-30T01:02:00.447Z,3.70
2017-11-30T01:04:29.844Z,3.70
2017-11-30T01:06:59.069Z,3.50
2017-11-30T01:09:28.865Z,3.50
2017-11-30T01:11:58.622Z,3.50
2017-11-30T01:14:27.992Z,3.60
2017-11-30T01:16:57.827Z,3.60
2017-11-30T01:19:26.787Z,3.50
2017-11-30T01:21:55.793Z,3.50
2017-11-30T01:24:25.543Z,3.40
2017-11-30T01:26:55.961Z,3.60
2017-11-30T01:29:25.731Z,3.60
2017-11-30T01:31:54.762Z,3.80
2017-11-30T01:34:23.786Z,3.80
2017-11-30T01:36:52.857Z,3.70
2017-11-30T01:39:22.138Z,3.70
2017-11-30T01:41:51.082Z,3.70
2017-11-30T01:44:20.827Z,3.70
2017-11-30T01:46:49.908Z,3.80
2017-11-30T01:49:18.861Z,3.80
2017-11-30T01:51:47.871Z,3.80
2017-11-30T01:54:17.375Z,3.80
2017-11-30T01:56:46.388Z,3.80
2017-11-30T01:59:15.492Z,3.80
2017-11-30T02:01:45.273Z,4.00
2017-11-30T02:04:15.050Z,3.90
2017-11-30T02:06:44.055Z,3.90
2017-11-30T02:09:13.064Z,4.00
2017-11-30T02:11:42.896Z,4.00
2017-11-30T02:14:12.735Z,4.00
2017-11-30T02:16:41.920Z,4.00
2017-11-30T02:19:11.801Z,4.00
2017-11-30T02:21:40.817Z,4.00
2017-11-30T02:24:10.640Z,3.90
2017-11-30T02:26:40.439Z,3.80
2017-11-30T02:29:09.437Z,3.80
2017-11-30T02:31:39.190Z,3.80
2017-11-30T02:34:08.659Z,3.80
2017-11-30T02:36:37.689Z,3.80
2017-11-30T02:39:08.093Z,3.90
2017-11-30T02:41:37.514Z,3.90
2017-11-30T02:44:06.519Z,3.80
2017-11-30T02:46:35.554Z,3.70
2017-11-30T02:49:05.303Z,3.80
2017-11-30T02:51:35.447Z,3.80
2017-11-30T02:54:04.685Z,3.60
2017-11-30T02:56:34.140Z,3.60
2017-11-30T02:59:03.889Z,3.50
2017-11-30T03:01:33.642Z,3.50
2017-11-30T03:04:03.491Z,3.60
2017-11-30T03:06:32.561Z,3.60
2017-11-30T03:09:01.539Z,3.50
2017-11-30T03:11:30.690Z,3.60
2017-11-30T03:14:00.431Z,3.50
2017-11-30T03:16:29.467Z,3.40
2017-11-30T03:18:58.462Z,3.60
2017-11-30T03:21:27.432Z,3.60
2017-11-30T03:23:56.913Z,3.70
2017-11-30T03:26:26.674Z,3.60
2017-11-30T03:28:55.777Z,3.60
2017-11-30T03:31:24.723Z,3.60
2017-11-30T03:33:53.699Z,3.60
2017-11-30T03:36:22.685Z,3.70
2017-11-30T03:38:51.734Z,3.70
2017-11-30T03:41:20.695Z,3.70
2017-11-30T03:43:50.466Z,3.60
2017-11-30T03:46:19.457Z,3.60
2017-11-30T03:48:48.449Z,3.60
2017-11-30T03:51:17.435Z,5.20
2017-11-30T03:53:46.456Z,3.70
2017-11-30T03:56:15.445Z,3.70
2017-11-30T03:58:44.426Z,3.80
2017-11-30T04:01:13.401Z,3.80
2017-11-30T04:03:42.467Z,3.80
2017-11-30T04:06:11.453Z,3.80
2017-11-30T04:08:40.586Z,3.70
2017-11-30T04:11:09.675Z,3.50
2017-11-30T04:13:39.126Z,3.60
2017-11-30T04:16:08.192Z,3.70
2017-11-30T04:18:37.945Z,3.70
2017-11-30T04:21:06.930Z,3.70
2017-11-30T04:23:36.021Z,3.80
2017-11-30T04:26:06.148Z,3.80
2017-11-30T04:28:35.189Z,3.70
2017-11-30T04:31:04.561Z,3.80
2017-11-30T04:33:33.542Z,3.70
2017-11-30T04:36:03.320Z,3.70
2017-11-30T04:38:33.202Z,3.70
2017-11-30T04:41:02.562Z,3.70
2017-11-30T04:43:31.617Z,3.60
2017-11-30T04:46:00.585Z,3.60
2017-11-30T04:48:29.597Z,3.70
2017-11-30T04:50:58.601Z,3.80
2017-11-30T04:53:28.370Z,3.70
2017-11-30T04:55:58.133Z,3.70
2017-11-30T04:58:27.136Z,3.60
2017-11-30T05:00:56.410Z,3.60
2017-11-30T05:03:26.129Z,3.60
2017-11-30T05:05:55.643Z,3.50
2017-11-30T05:08:24.611Z,3.60
2017-11-30T05:10:54.477Z,3.60
2017-11-30T05:13:23.509Z,3.70
2017-11-30T05:15:52.613Z,3.80
2017-11-30T05:18:22.398Z,3.90
2017-11-30T05:20:51.422Z,4.00
2017-11-30T05:23:20.946Z,3.90
2017-11-30T05:25:55.997Z,3.80
2017-11-30T05:28:25.021Z,3.90
2017-11-30T05:30:54.825Z,3.80
2017-11-30T05:33:23.924Z,3.90
2017-11-30T05:35:52.910Z,4.00
2017-11-30T05:38:22.727Z,4.00
2017-11-30T05:40:52.520Z,4.00
2017-11-30T05:43:21.946Z,4.10
2017-11-30T05:45:51.355Z,4.00
2017-11-30T05:48:20.791Z,4.00
2017-11-30T05:50:50.549Z,4.00
2017-11-30T05:53:20.011Z,4.00
2017-11-30T05:55:49.415Z,4.10
2017-11-30T05:58:19.195Z,4.00
2017-11-30T06:00:48.994Z,4.10
2017-11-30T06:03:20.692Z,4.00
2017-11-30T06:05:50.477Z,4.10
2017-11-30T06:08:19.513Z,4.10
2017-11-30T06:10:48.616Z,3.90
2017-11-30T06:13:18.010Z,3.90
2017-11-30T06:15:48.011Z,3.90
2017-11-30T06:18:17.389Z,3.90
2017-11-30T06:20:47.162Z,3.80
2017-11-30T06:23:16.961Z,3.80
2017-11-30T06:25:46.723Z,3.80
2017-11-30T06:28:15.740Z,3.80
2017-11-30T06:30:45.498Z,3.90
2017-11-30T06:33:14.521Z,3.90
2017-11-30T06:35:43.511Z,3.90
2017-11-30T06:38:13.286Z,3.90
2017-11-30T06:40:42.734Z,4.00
2017-11-30T06:43:12.110Z,4.10
2017-11-30T06:45:41.191Z,4.00
2017-11-30T06:48:10.974Z,4.00
2017-11-30T06:50:40.735Z,4.00
2017-11-30T06:53:10.486Z,4.10
2017-11-30T06:55:39.521Z,4.10
2017-11-30T06:58:08.514Z,4.10
2017-11-30T07:00:37.598Z,4.10
2017-11-30T07:03:06.759Z,4.20
2017-11-30T07:05:35.748Z,4.10
2017-11-30T07:08:04.725Z,4.10
2017-11-30T07:10:33.794Z,4.00
2017-11-30T07:13:02.757Z,4.10
2017-11-30T07:15:31.772Z,3.90
2017-11-30T07:18:00.735Z,4.00
2017-11-30T07:20:29.774Z,4.00
2017-11-30T07:22:58.728Z,4.00
2017-11-30T07:25:27.739Z,3.90
2017-11-30T07:27:56.705Z,3.80
2017-11-30T07:30:25.796Z,3.80
2017-11-30T07:32:55.532Z,3.90
2017-11-30T07:35:24.552Z,3.80
2017-11-30T07:37:53.551Z,3.80
2017-11-30T07:40:22.526Z,3.90
2017-11-30T07:42:51.542Z,4.00
2017-11-30T07:45:21.303Z,4.00
2017-11-30T07:47:50.300Z,4.00
2017-11-30T07:50:19.286Z,4.10
2017-11-30T07:52:48.287Z,4.20
2017-11-30T07:55:17.264Z,4.10
2017-11-30T07:57:46.469Z,4.00
2017-11-30T08:00:15.716Z,4.00
2017-11-30T08:02:44.712Z,4.00
2017-11-30T08:05:13.693Z,4.10
2017-11-30T08:07:42.699Z,4.10
2017-11-30T08:10:11.710Z,4.10
2017-11-30T08:12:40.727Z,4.10
2017-11-30T08:15:09.761Z,4.10
2017-11-30T08:17:39.500Z,4.10
2017-11-30T08:20:08.529Z,4.20
2017-11-30T08:22:37.481Z,4.30
2017-11-30T08:25:07.812Z,4.30
2017-11-30T08:27:36.854Z,4.30
2017-11-30T08:30:05.881Z,4.30
2017-11-30T08:32:35.654Z,4.10
2017-11-30T08:35:04.700Z,4.10
2017-11-30T08:37:34.474Z,4.10
2017-11-30T08:40:03.484Z,4.00
2017-11-30T08:42:32.836Z,4.10
2017-11-30T08:45:02.658Z,4.40
2017-11-30T08:47:31.636Z,4.30
2017-11-30T08:50:00.629Z,4.50
2017-11-30T08:52:29.606Z,4.60
2017-11-30T08:54:58.602Z,4.60
2017-11-30T08:57:28.711Z,4.80
2017-11-30T08:59:57.734Z,4.80
2017-11-30T09:02:28.211Z,4.90
2017-11-30T09:04:57.203Z,4.90
2017-11-30T09:07:26.224Z,4.90
2017-11-30T09:09:55.232Z,4.90
2017-11-30T09:12:24.193Z,4.70
2017-11-30T09:14:53.594Z,4.70
2017-11-30T09:17:22.593Z,4.80
2017-11-30T09:19:51.599Z,4.80
2017-11-30T09:22:20.608Z,4.80
2017-11-30T09:24:50.366Z,4.70
2017-11-30T09:27:19.406Z,4.50
2017-11-30T09:29:48.453Z,4.50
2017-11-30T09:32:17.815Z,4.60
2017-11-30T09:34:46.821Z,4.50
2017-11-30T09:37:17.337Z,4.30
2017-11-30T09:39:46.421Z,4.20
2017-11-30T09:42:15.465Z,4.20
2017-11-30T09:44:44.896Z,4.10
2017-11-30T09:47:14.669Z,4.10
2017-11-30T09:49:44.479Z,4.20
2017-11-30T09:52:13.486Z,4.30
2017-11-30T09:54:42.552Z,4.50
2017-11-30T09:57:11.956Z,4.60
2017-11-30T09:59:40.946Z,4.60
2017-11-30T10:02:10.725Z,4.40
2017-11-30T10:04:39.766Z,4.40
2017-11-30T10:07:09.502Z,4.20
2017-11-30T10:09:38.523Z,4.20
2017-11-30T10:12:07.512Z,4.30
2017-11-30T10:14:37.375Z,4.20
2017-11-30T10:17:06.433Z,4.30
2017-11-30T10:19:35.432Z,4.40
2017-11-30T10:22:04.476Z,4.30
2017-11-30T10:24:34.228Z,4.30
2017-11-30T10:27:04.013Z,4.20
2017-11-30T10:29:33.409Z,4.30
2017-11-30T10:32:02.426Z,4.30
2017-11-30T10:34:31.807Z,4.30
2017-11-30T10:37:00.798Z,4.30
2017-11-30T10:39:29.934Z,4.50
2017-11-30T10:42:00.466Z,4.30
2017-11-30T10:44:30.279Z,4.40
2017-11-30T10:46:59.663Z,4.60
2017-11-30T10:49:30.531Z,4.60
2017-11-30T10:51:59.915Z,4.40
2017-11-30T10:54:29.767Z,4.40
2017-11-30T10:56:59.292Z,4.50
2017-11-30T10:59:28.708Z,4.50
2017-11-30T11:01:58.484Z,4.50
2017-11-30T11:04:27.856Z,4.40
2017-11-30T11:06:57.275Z,4.30
2017-11-30T11:09:26.696Z,4.40
2017-11-30T11:11:55.686Z,4.40
2017-11-30T11:14:24.702Z,4.30
2017-11-30T11:16:53.686Z,4.20
2017-11-30T11:19:22.673Z,4.30
2017-11-30T11:21:51.687Z,4.30
2017-11-30T11:24:20.663Z,4.50
2017-11-30T11:26:50.072Z,4.60
2017-11-30T11:29:19.155Z,4.50
2017-11-30T11:31:48.138Z,4.50
2017-11-30T11:34:18.102Z,4.60
2017-11-30T11:36:47.843Z,4.70
2017-11-30T11:39:17.998Z,4.80
2017-11-30T11:41:46.999Z,4.80
2017-11-30T11:44:16.465Z,4.80
2017-11-30T11:46:45.439Z,4.70
2017-11-30T11:49:14.519Z,4.70
2017-11-30T11:51:43.520Z,4.60
2017-11-30T11:54:12.511Z,4.70
2017-11-30T11:56:41.894Z,4.60
2017-11-30T11:59:10.941Z,4.60
2017-11-30T12:01:40.682Z,4.70
2017-11-30T12:04:10.435Z,4.70
2017-11-30T12:06:39.879Z,4.80
2017-11-30T12:09:08.877Z,4.80
2017-11-30T12:11:37.849Z,4.90
2017-11-30T12:14:07.633Z,4.90
2017-11-30T12:16:37.043Z,4.80
2017-11-30T12:19:06.810Z,4.80
2017-11-30T12:21:35.908Z,4.70
2017-11-30T12:24:05.006Z,4.60
2017-11-30T12:26:34.755Z,4.70
2017-11-30T12:29:05.014Z,4.70
2017-11-30T12:31:35.230Z,4.80
2017-11-30T12:34:04.224Z,4.70
2017-11-30T12:36:33.257Z,4.60
2017-11-30T12:39:03.563Z,4.60
2017-11-30T12:41:32.986Z,4.70
2017-11-30T12:44:03.655Z,4.80
2017-11-30T12:46:33.419Z,4.80
2017-11-30T12:49:02.392Z,4.90
2017-11-30T12:51:31.796Z,4.80
2017-11-30T12:54:00.777Z,4.80
2017-11-30T12:56:30.162Z,4.90
2017-11-30T12:58:59.756Z,4.90
2017-11-30T13:01:29.633Z,4.90
2017-11-30T13:03:58.668Z,5.00
2017-11-30T13:06:28.403Z,5.10
2017-11-30T13:08:57.886Z,4.90
2017-11-30T13:11:27.680Z,4.90
2017-11-30T13:13:57.440Z,4.90
2017-11-30T13:16:27.718Z,4.90
2017-11-30T13:18:56.707Z,4.80
2017-11-30T13:21:26.516Z,4.90
2017-11-30T13:23:55.598Z,5.00
2017-11-30T13:26:24.631Z,5.00
2017-11-30T13:28:53.657Z,5.10
2017-11-30T13:31:23.061Z,4.90
2017-11-30T13:33:53.597Z,4.90
2017-11-30T13:36:22.692Z,4.80
2017-11-30T13:38:51.692Z,4.70
2017-11-30T13:41:20.774Z,4.80
2017-11-30T13:43:50.618Z,4.90
2017-11-30T13:46:20.397Z,4.80
2017-11-30T13:48:49.491Z,4.70
2017-11-30T13:51:18.532Z,4.80
2017-11-30T13:56:42.915Z,4.60
2017-11-30T13:59:13.480Z,4.70
2017-11-30T14:01:42.505Z,4.60
2017-11-30T14:04:11.493Z,4.70
2017-11-30T14:06:40.478Z,4.70
2017-11-30T14:09:09.448Z,4.60
2017-11-30T14:11:38.440Z,4.70
2017-11-30T14:14:07.839Z,4.70
2017-11-30T14:16:37.245Z,4.80
2017-11-30T14:19:06.631Z,4.90
2017-11-30T14:21:36.377Z,5.00
2017-11-30T14:24:05.340Z,4.90
2017-11-30T14:26:34.917Z,4.90
2017-11-30T14:29:04.269Z,4.90
2017-11-30T14:31:33.227Z,4.90
2017-11-30T14:34:02.631Z,4.90
2017-11-30T14:36:32.108Z,4.90
2017-11-30T14:39:02.102Z,5.00
2017-11-30T14:41:31.848Z,5.00
2017-11-30T14:44:00.929Z,5.00
2017-11-30T14:46:30.776Z,5.10
2017-11-30T14:49:00.173Z,5.20
2017-11-30T14:51:29.929Z,5.20
2017-11-30T14:53:58.978Z,5.20
2017-11-30T14:56:28.772Z,5.10
2017-11-30T14:58:57.776Z,5.10
2017-11-30T15:01:28.131Z,5.10
2017-11-30T15:03:57.125Z,5.10
2017-11-30T15:06:26.071Z,5.10
2017-11-30T15:08:55.844Z,5.10
2017-11-30T15:11:25.023Z,5.20
2017-11-30T15:13:54.084Z,5.20
2017-11-30T15:16:23.077Z,5.10
2017-11-30T15:18:52.171Z,5.10
2017-11-30T15:21:21.524Z,5.00
2017-11-30T15:23:50.527Z,4.90
2017-11-30T15:26:19.483Z,4.90
2017-11-30T15:28:48.561Z,4.80
2017-11-30T15:31:18.344Z,4.80
2017-11-30T15:33:47.317Z,4.80
2017-11-30T15:36:16.858Z,4.70
2017-11-30T15:38:45.916Z,4.70
2017-11-30T15:41:15.296Z,4.60
2017-11-30T15:43:44.334Z,4.50
2017-11-30T15:46:13.685Z,4.40
2017-11-30T15:48:42.751Z,4.40
2017-11-30T15:51:12.635Z,4.40
2017-11-30T15:53:41.640Z,4.30
2017-11-30T15:56:10.622Z,4.30
2017-11-30T15:58:39.642Z,4.30
2017-11-30T16:01:08.706Z,4.20
2017-11-30T16:03:37.703Z,4.20
2017-11-30T16:06:06.710Z,4.10
2017-11-30T16:08:35.748Z,4.10
2017-11-30T16:11:05.465Z,4.00
2017-11-30T16:13:34.645Z,4.00
2017-11-30T16:16:04.583Z,4.00
2017-11-30T16:18:34.309Z,4.00
2017-11-30T16:21:03.670Z,4.00
2017-11-30T16:23:32.696Z,4.00
2017-11-30T16:26:01.750Z,4.00
2017-11-30T16:28:30.756Z,4.00
2017-11-30T16:31:00.484Z,4.00
2017-11-30T16:33:29.884Z,3.90
2017-11-30T16:35:58.880Z,3.90
2017-11-30T16:38:27.961Z,3.90
2017-11-30T16:40:57.372Z,3.90
2017-11-30T16:43:26.337Z,4.00
2017-11-30T16:45:56.128Z,4.00
2017-11-30T16:48:25.669Z,4.00
2017-11-30T16:50:54.929Z,4.00
2017-11-30T16:53:24.733Z,4.00
2017-11-30T16:55:54.501Z,4.10
2017-11-30T16:58:23.609Z,4.10
2017-11-30T17:00:52.589Z,4.20
2017-11-30T17:03:21.605Z,4.20
2017-11-30T17:05:52.369Z,4.20
2017-11-30T17:08:21.736Z,4.20
2017-11-30T17:10:51.577Z,4.30
2017-11-30T17:13:20.570Z,4.30
2017-11-30T17:15:50.337Z,4.30
2017-11-30T17:18:20.451Z,4.30
2017-11-30T17:20:49.467Z,4.30
2017-11-30T17:23:18.496Z,4.40
2017-11-30T17:25:48.275Z,4.30
2017-11-30T17:28:18.036Z,4.40
2017-11-30T17:30:47.788Z,4.30
2017-11-30T17:33:16.783Z,4.40
2017-11-30T17:35:45.759Z,4.40
2017-11-30T17:38:14.761Z,4.40
2017-11-30T17:40:43.748Z,4.50
2017-11-30T17:43:12.772Z,4.50
2017-11-30T17:45:41.922Z,4.40
2017-11-30T17:48:11.861Z,4.40
2017-11-30T17:50:41.246Z,4.50
2017-11-30T17:53:10.231Z,4.40
2017-11-30T17:55:39.634Z,4.40
2017-11-30T17:58:08.646Z,4.30
2017-11-30T18:00:37.657Z,4.30
2017-11-30T18:03:06.670Z,4.30
2017-11-30T18:05:35.734Z,4.30
2017-11-30T18:08:04.781Z,4.20
2017-11-30T18:10:33.783Z,4.20
2017-11-30T18:13:02.789Z,4.30
2017-11-30T18:15:31.918Z,4.40
2017-11-30T18:18:01.786Z,4.40
2017-11-30T18:20:30.827Z,4.30
2017-11-30T18:23:00.615Z,4.40
2017-11-30T18:25:29.602Z,4.30
2017-11-30T18:27:58.698Z,4.30
2017-11-30T18:30:27.702Z,4.40
2017-11-30T18:32:56.774Z,4.40
2017-11-30T18:35:25.743Z,4.40
2017-11-30T18:37:55.545Z,4.30
2017-11-30T18:40:25.888Z,4.30
2017-11-30T18:42:54.903Z,4.20
2017-11-30T18:45:23.912Z,4.10
2017-11-30T18:47:52.955Z,4.00
2017-11-30T18:50:22.512Z,3.90
2017-11-30T18:52:51.956Z,3.90
2017-11-30T18:55:21.737Z,3.80
2017-11-30T18:57:50.752Z,3.80
2017-11-30T19:00:20.165Z,3.70
2017-11-30T19:02:49.940Z,3.60
2017-11-30T19:05:19.392Z,3.50
2017-11-30T19:07:48.465Z,3.40
2017-11-30T19:10:18.528Z,3.30
2017-11-30T19:12:47.978Z,3.20
2017-11-30T19:15:17.114Z,3.10
2017-11-30T19:17:46.206Z,3.10
2017-11-30T19:20:15.249Z,3.00
2017-11-30T19:22:44.356Z,2.90
2017-11-30T19:25:14.169Z,2.90
2017-11-30T19:27:44.035Z,2.80
2017-11-30T19:30:13.063Z,2.80
2017-11-30T19:32:42.374Z,2.80
2017-11-30T19:35:12.801Z,2.70
2017-11-30T19:37:41.857Z,2.70
2017-11-30T19:40:11.335Z,2.60
2017-11-30T19:42:40.390Z,2.60
2017-11-30T19:45:10.088Z,2.60
2017-11-30T19:47:39.499Z,2.40
2017-11-30T19:50:09.112Z,2.50
2017-11-30T19:52:39.447Z,2.30
2017-11-30T19:55:10.225Z,2.40
2017-11-30T19:57:40.068Z,2.20
2017-11-30T20:00:09.141Z,2.20
2017-11-30T20:02:38.206Z,2.20
2017-11-30T20:05:07.247Z,2.20
2017-11-30T20:07:36.257Z,2.10
2017-11-30T20:10:05.782Z,2.20
2017-11-30T20:12:35.574Z,2.10
2017-11-30T20:15:04.646Z,2.10
2017-11-30T20:17:33.680Z,2.00
2017-11-30T20:20:02.700Z,2.00
2017-11-30T20:22:31.775Z,2.00
2017-11-30T20:25:03.385Z,2.00
2017-11-30T20:27:33.672Z,2.00
2017-11-30T20:30:03.442Z,2.00
2017-11-30T20:32:32.939Z,2.00
2017-11-30T20:35:03.394Z,1.90
2017-11-30T20:37:33.617Z,1.90
2017-11-30T20:40:02.734Z,1.90
2017-11-30T20:42:31.819Z,1.90
2017-11-30T20:45:02.407Z,1.90
2017-11-30T20:47:32.077Z,1.90
2017-11-30T20:50:01.907Z,0.10
2017-11-30T20:52:31.744Z,1.80
2017-11-30T20:55:01.558Z,1.70
2017-11-30T20:57:31.377Z,1.70
2017-11-30T21:00:02.517Z,1.70
2017-11-30T21:02:33.089Z,1.70
2017-11-30T21:05:02.165Z,1.70
2017-11-30T21:07:31.624Z,1.70
2017-11-30T21:10:01.603Z,1.70
2017-11-30T21:12:32.606Z,1.60
2017-11-30T21:15:02.020Z,1.70
2017-11-30T21:17:31.865Z,1.70
2017-11-30T21:20:01.267Z,1.70
2017-11-30T21:22:30.404Z,1.60
2017-11-30T21:24:59.908Z,1.60
2017-11-30T21:27:29.686Z,1.50
2017-11-30T21:29:59.503Z,1.50
2017-11-30T21:32:28.556Z,1.50
2017-11-30T21:34:57.630Z,1.50
2017-11-30T21:37:27.447Z,1.50
2017-11-30T21:39:56.827Z,1.50
2017-11-30T21:42:26.624Z,1.30
2017-11-30T21:44:56.062Z,1.30
2017-11-30T21:47:25.054Z,1.40
2017-11-30T21:49:54.523Z,1.50
2017-11-30T21:52:23.507Z,1.50
2017-11-30T21:54:52.549Z,1.50
2017-11-30T21:57:22.294Z,1.40
2017-11-30T21:59:51.313Z,1.30
2017-11-30T22:02:20.305Z,1.40
2017-11-30T22:04:49.760Z,1.40
2017-11-30T22:07:18.820Z,1.40
2017-11-30T22:09:47.811Z,1.30
2017-11-30T22:12:16.802Z,1.20
2017-11-30T22:14:46.535Z,1.20
2017-11-30T22:17:15.541Z,1.30
2017-11-30T22:19:44.527Z,1.30
2017-11-30T22:22:13.534Z,1.30
2017-11-30T22:24:42.506Z,1.20
2017-11-30T22:27:11.903Z,1.30
2017-11-30T22:29:40.958Z,1.40
2017-11-30T22:32:09.936Z,1.50
2017-11-30T22:34:38.941Z,1.60
2017-11-30T22:37:08.019Z,1.70
2017-11-30T22:39:37.023Z,1.80
2017-11-30T22:42:06.180Z,1.80
2017-11-30T22:44:35.892Z,1.90
2017-11-30T22:47:05.678Z,1.90
2017-11-30T22:49:35.449Z,1.90
2017-11-30T22:52:04.439Z,1.90
2017-11-30T22:54:34.092Z,2.00
2017-11-30T22:57:03.100Z,2.00
2017-11-30T22:59:32.883Z,2.10
2017-11-30T23:02:01.997Z,2.10
2017-11-30T23:04:31.000Z,2.10
2017-11-30T23:07:00.737Z,2.20
2017-11-30T23:09:30.525Z,2.20
2017-11-30T23:11:59.537Z,2.30
2017-11-30T23:14:29.315Z,2.20
2017-11-30T23:16:58.333Z,2.40
2017-11-30T23:19:28.443Z,2.40
2017-11-30T23:21:57.434Z,2.40
2017-11-30T23:24:26.816Z,2.40
2017-11-30T23:26:57.074Z,2.50
2017-11-30T23:29:26.859Z,2.50
2017-11-30T23:31:55.865Z,2.50
2017-11-30T23:34:24.830Z,2.60
2017-11-30T23:36:54.608Z,2.60
2017-11-30T23:39:23.602Z,2.70
2017-11-30T23:41:52.576Z,2.70
2017-11-30T23:44:22.360Z,2.70
2017-11-30T23:46:52.512Z,2.80
2017-11-30T23:49:21.502Z,2.80
2017-11-30T23:51:50.530Z,2.80
2017-11-30T23:54:19.490Z,2.90
2017-11-30T23:56:48.545Z,2.90
2017-11-30T23:59:17.541Z,2.90
